VTPH/HHQ METAR and TAF weather

Enter ICAO airport designator
Station Type Date Time Source
VTPH METAR 2019/02/22 23:00 UTC NOAA

VTPH 222300Z 23004KT 190V290 9000 NSC 25/21 Q1010 NOSIG


Station Type Date Time Source
VTPH Decoded METAR 2019/02/22 23:00 UTC NOAA

Hua Hin, Thailand (VTPH) 12-35N 099-57E 6M
Feb 22, 2019 - 06:00 PM EST / 2019.02.22 2300 UTC
Wind: from the SW (230 degrees) at 5 MPH (4 KT) (direction variable):0
Visibility: 5 mile(s):0
Temperature: 77 F (25 C)
Dew Point: 69 F (21 C)
Relative Humidity: 78%
Pressure (altimeter): 29.83 in. Hg (1010 hPa)
ob: VTPH 222300Z 23004KT 190V290 9000 NSC 25/21 Q1010 NOSIG
cycle: 23

Station Type Date Time Source
VTPH TAF 2019/02/22 18:00 UTC NOAA

TAF VTPH 221700Z 2218/2318 00000KT 9999 FEW030
BECMG 2301/2303 15008KT
BECMG 2310/2312 00000KT


Example: see airport list